Time;durP1;ratioP1;P1;durP2;ratioP2;P2;SDS_P1;SDS_P2;PMS_P1;PMS_P2;Temp;Humidity;BMP_temperature;BMP_pressure;BME280_temperature;BME280_humidity;BME280_pressure;Samples;Min_cycle;Max_cycle;Signal;HPM_P1;HPM_P2
2022/05/13 00:01:44;;;;;;;9.93;8.93;;;;;;;;;;5065095;28;20447;-78
2022/05/13 00:04:10;;;;;;;9.33;8.43;;;;;;;;;;5049923;28;20817;-78
2022/05/13 00:06:37;;;;;;;8.77;7.97;;;;;;;;;;5036449;28;20537;-78
2022/05/13 00:09:04;;;;;;;10.00;8.30;;;;;;;;;;5047492;28;20454;-78
2022/05/13 00:11:32;;;;;;;9.23;8.27;;;;;;;;;;5051819;28;20453;-78
2022/05/13 00:13:58;;;;;;;10.23;8.57;;;;;;;;;;5053348;28;20919;-78
2022/05/13 00:16:25;;;;;;;11.70;8.80;;;;;;;;;;5034203;28;20957;-78
2022/05/13 00:18:51;;;;;;;15.43;10.37;;;;;;;;;;5053253;28;20446;-78
2022/05/13 00:21:18;;;;;;;9.90;8.20;;;;;;;;;;5071203;28;20882;-78
2022/05/13 00:23:45;;;;;;;10.43;9.50;;;;;;;;;;5071231;28;20525;-78
2022/05/13 00:26:11;;;;;;;9.47;8.67;;;;;;;;;;5035404;28;20435;-77
2022/05/13 00:28:39;;;;;;;8.40;7.60;;;;;;;;;;5068408;28;20457;-77
2022/05/13 00:31:05;;;;;;;9.20;8.30;;;;;;;;;;5067746;28;20517;-78
2022/05/13 00:33:33;;;;;;;8.47;7.67;;;;;;;;;;5071114;28;20559;-78
2022/05/13 00:35:59;;;;;;;9.90;9.00;;;;;;;;;;5017814;28;20450;-77
2022/05/13 00:38:26;;;;;;;9.67;8.70;;;;;;;;;;5052242;28;20435;-78
2022/05/13 00:40:53;;;;;;;9.70;8.80;;;;;;;;;;5033608;28;20827;-78
2022/05/13 00:43:34;;;;;;;8.73;7.93;;;;;;;;;;5053575;28;20480;-78
2022/05/13 00:46:03;;;;;;;9.90;8.90;;;;;;;;;;5039613;28;20454;-77
2022/05/13 00:48:30;;;;;;;9.97;8.93;;;;;;;;;;5038047;28;20440;-77
2022/05/13 00:50:56;;;;;;;8.87;7.97;;;;;;;;;;5043880;28;20430;-78
2022/05/13 00:53:23;;;;;;;10.17;8.90;;;;;;;;;;5037494;28;21041;-78
2022/05/13 00:55:50;;;;;;;9.97;8.90;;;;;;;;;;5041377;28;20427;-78
2022/05/13 00:58:17;;;;;;;9.20;8.30;;;;;;;;;;5033791;28;20535;-78
2022/05/13 01:00:44;;;;;;;9.30;8.30;;;;;;;;;;5064223;28;20531;-78
2022/05/13 01:03:12;;;;;;;10.27;9.30;;;;;;;;;;5051686;28;20463;-78
2022/05/13 01:05:41;;;;;;;9.90;9.00;;;;;;;;;;5070775;28;20448;-78
2022/05/13 01:08:08;;;;;;;9.53;8.63;;;;;;;;;;5048268;28;20443;-78
2022/05/13 01:10:35;;;;;;;10.60;8.80;;;;;;;;;;5065436;28;20809;-78
2022/05/13 01:13:06;;;;;;;11.57;9.17;;;;;;;;;;5051208;28;20469;-78
2022/05/13 01:15:34;;;;;;;9.40;8.50;;;;;;;;;;5049771;28;21005;-78
2022/05/13 01:18:05;;;;;;;9.57;8.77;;;;;;;;;;5044629;28;20449;-78
2022/05/13 01:20:35;;;;;;;9.30;8.40;;;;;;;;;;5039444;28;20508;-78
2022/05/13 01:23:04;;;;;;;8.73;7.93;;;;;;;;;;5053145;28;20446;-78
2022/05/13 01:25:33;;;;;;;10.60;8.83;;;;;;;;;;5043627;28;20800;-78
2022/05/13 01:28:06;;;;;;;10.40;9.40;;;;;;;;;;5052330;28;20442;-78
2022/05/13 01:30:32;;;;;;;11.80;9.97;;;;;;;;;;5051356;28;20418;-79
2022/05/13 01:32:59;;;;;;;10.23;9.23;;;;;;;;;;5051564;28;20534;-79
2022/05/13 01:35:25;;;;;;;13.27;10.20;;;;;;;;;;5054829;28;20464;-80
2022/05/13 01:37:52;;;;;;;12.73;9.13;;;;;;;;;;5039490;28;20459;-81
2022/05/13 01:40:20;;;;;;;11.40;10.10;;;;;;;;;;5058979;28;20469;-80
2022/05/13 01:42:46;;;;;;;11.10;10.00;;;;;;;;;;5046405;28;20512;-80
2022/05/13 01:45:13;;;;;;;11.27;10.27;;;;;;;;;;5058026;28;20542;-80
2022/05/13 01:47:39;;;;;;;11.10;9.83;;;;;;;;;;5034099;28;20542;-80
2022/05/13 01:50:06;;;;;;;11.07;9.97;;;;;;;;;;5032539;28;20510;-79
2022/05/13 01:52:33;;;;;;;10.60;9.50;;;;;;;;;;5032664;28;20434;-79
2022/05/13 01:54:59;;;;;;;11.60;10.50;;;;;;;;;;5050416;28;20462;-79
2022/05/13 01:57:27;;;;;;;10.63;9.60;;;;;;;;;;5054741;28;20540;-79
2022/05/13 01:59:55;;;;;;;10.80;9.53;;;;;;;;;;5059906;28;20439;-80
2022/05/13 02:02:21;;;;;;;11.17;10.00;;;;;;;;;;5046231;28;20438;-80
2022/05/13 02:04:47;;;;;;;10.50;8.83;;;;;;;;;;5048459;28;20485;-80
2022/05/13 02:07:13;;;;;;;7.97;6.87;;;;;;;;;;5060426;28;20477;-80
2022/05/13 02:09:40;;;;;;;7.33;6.63;;;;;;;;;;5051972;28;20205;-80
2022/05/13 02:12:07;;;;;;;8.07;7.03;;;;;;;;;;5044219;28;20546;-79
2022/05/13 02:14:35;;;;;;;9.97;6.90;;;;;;;;;;5050773;28;20454;-79
2022/05/13 02:17:01;;;;;;;8.57;7.10;;;;;;;;;;5052392;28;20544;-80
2022/05/13 02:19:28;;;;;;;8.43;7.03;;;;;;;;;;5050636;28;20876;-80
2022/05/13 02:21:54;;;;;;;14.13;8.60;;;;;;;;;;5032679;28;20462;-81
2022/05/13 02:24:21;;;;;;;10.10;8.37;;;;;;;;;;5033006;28;20457;-80
2022/05/13 02:26:47;;;;;;;8.60;6.90;;;;;;;;;;5057167;28;20457;-79
2022/05/13 02:29:14;;;;;;;8.20;7.03;;;;;;;;;;5070019;28;20940;-80
2022/05/13 02:31:41;;;;;;;8.20;6.40;;;;;;;;;;5047398;28;20430;-81
2022/05/13 02:34:08;;;;;;;7.20;6.50;;;;;;;;;;5052534;28;20441;-80
2022/05/13 02:36:34;;;;;;;7.13;6.40;;;;;;;;;;5043242;28;20433;-80
2022/05/13 02:39:01;;;;;;;7.97;5.80;;;;;;;;;;5069671;28;20434;-79
2022/05/13 02:41:27;;;;;;;6.80;6.10;;;;;;;;;;5062630;28;20569;-79
2022/05/13 02:43:55;;;;;;;8.47;5.73;;;;;;;;;;5050408;28;20769;-80
2022/05/13 02:46:23;;;;;;;6.03;5.40;;;;;;;;;;5019234;28;20521;-80
2022/05/13 02:48:51;;;;;;;6.33;5.73;;;;;;;;;;5032169;28;20427;-80
2022/05/13 02:51:18;;;;;;;6.67;6.07;;;;;;;;;;5050960;28;21013;-79
2022/05/13 02:53:45;;;;;;;7.20;6.50;;;;;;;;;;5051179;28;20517;-79
2022/05/13 02:56:11;;;;;;;7.23;5.93;;;;;;;;;;5050308;28;20443;-79
2022/05/13 02:58:39;;;;;;;9.17;6.40;;;;;;;;;;5047480;28;20533;-79
2022/05/13 03:01:07;;;;;;;6.70;6.00;;;;;;;;;;5050852;28;20820;-80
2022/05/13 03:03:34;;;;;;;6.40;5.80;;;;;;;;;;5051962;28;20453;-80
2022/05/13 03:06:02;;;;;;;7.10;6.40;;;;;;;;;;5042575;28;20445;-79
2022/05/13 03:08:28;;;;;;;7.10;6.43;;;;;;;;;;5059944;28;20503;-79
2022/05/13 03:10:55;;;;;;;7.00;6.30;;;;;;;;;;5041339;28;20445;-79
2022/05/13 03:13:21;;;;;;;6.97;6.37;;;;;;;;;;5032426;28;20439;-79
2022/05/13 03:15:48;;;;;;;7.23;6.23;;;;;;;;;;5033336;28;20435;-80
2022/05/13 03:18:15;;;;;;;7.10;5.70;;;;;;;;;;5037805;28;20464;-80
2022/05/13 03:20:41;;;;;;;7.50;6.57;;;;;;;;;;5040031;28;20817;-80
2022/05/13 03:23:09;;;;;;;8.00;6.17;;;;;;;;;;5035555;28;20457;-80
2022/05/13 03:25:36;;;;;;;6.70;5.87;;;;;;;;;;5069835;28;20434;-79
2022/05/13 03:28:02;;;;;;;7.33;6.53;;;;;;;;;;5039001;28;20885;-80
2022/05/13 03:30:29;;;;;;;9.20;6.40;;;;;;;;;;5055419;28;20787;-80
2022/05/13 03:32:55;;;;;;;9.10;6.70;;;;;;;;;;5036383;28;20457;-80
2022/05/13 03:35:48;;;;;;;6.60;6.00;;;;;;;;;;5050586;28;20449;-80
2022/05/13 03:38:16;;;;;;;6.77;6.07;;;;;;;;;;5052737;28;20476;-79
2022/05/13 03:40:42;;;;;;;7.40;6.70;;;;;;;;;;5087088;28;20959;-79
2022/05/13 03:43:09;;;;;;;7.30;6.30;;;;;;;;;;5031942;28;20478;-80
2022/05/13 03:45:36;;;;;;;6.60;6.00;;;;;;;;;;5050969;28;20427;-80
2022/05/13 03:48:03;;;;;;;7.03;6.33;;;;;;;;;;5052807;28;20450;-79
2022/05/13 03:50:29;;;;;;;7.80;6.67;;;;;;;;;;5045508;28;20549;-79
2022/05/13 03:52:56;;;;;;;7.67;7.00;;;;;;;;;;5036180;28;20880;-80
2022/05/13 03:55:24;;;;;;;7.63;6.93;;;;;;;;;;5052320;28;20945;-80
2022/05/13 03:57:50;;;;;;;8.07;6.80;;;;;;;;;;5058698;28;20445;-79
2022/05/13 04:00:17;;;;;;;7.10;6.50;;;;;;;;;;5062092;28;20524;-79
2022/05/13 04:02:44;;;;;;;8.07;7.33;;;;;;;;;;5020193;28;20542;-79
2022/05/13 04:10:40;;;;;;;7.97;7.07;;;;;;;;;;5042382;28;20471;-79
2022/05/13 04:16:06;;;;;;;7.37;6.67;;;;;;;;;;5035390;28;20438;-79
2022/05/13 04:18:33;;;;;;;8.00;6.80;;;;;;;;;;5052685;28;20446;-79
2022/05/13 04:20:59;;;;;;;8.43;7.10;;;;;;;;;;5063724;28;20482;-79
2022/05/13 04:23:27;;;;;;;8.60;6.73;;;;;;;;;;5051296;28;20451;-79
2022/05/13 04:25:54;;;;;;;7.47;6.50;;;;;;;;;;5052064;28;20834;-79
2022/05/13 04:28:21;;;;;;;9.00;6.97;;;;;;;;;;5057719;28;20451;-79
2022/05/13 04:30:47;;;;;;;8.90;7.17;;;;;;;;;;5034801;28;20454;-79
2022/05/13 04:33:14;;;;;;;8.97;7.20;;;;;;;;;;5042464;28;20444;-79
2022/05/13 04:35:41;;;;;;;9.60;7.80;;;;;;;;;;5051164;28;20530;-79
2022/05/13 04:38:08;;;;;;;7.50;6.80;;;;;;;;;;5053777;28;20915;-79
2022/05/13 04:40:34;;;;;;;8.73;7.93;;;;;;;;;;5046216;28;20875;-79
2022/05/13 04:43:01;;;;;;;7.93;7.13;;;;;;;;;;5033955;28;20478;-79
2022/05/13 04:45:29;;;;;;;8.80;7.40;;;;;;;;;;5031987;28;20443;-80
2022/05/13 04:50:41;;;;;;;7.33;6.63;;;;;;;;;;5050650;28;20423;-79
2022/05/13 04:53:08;;;;;;;10.23;7.80;;;;;;;;;;5032610;28;20435;-79
2022/05/13 04:55:35;;;;;;;7.83;7.10;;;;;;;;;;5060217;28;20440;-79
2022/05/13 04:58:03;;;;;;;8.00;7.27;;;;;;;;;;5052065;28;20438;-79
2022/05/13 05:00:30;;;;;;;8.17;7.37;;;;;;;;;;5069509;28;20434;-79
2022/05/13 05:02:56;;;;;;;9.00;7.80;;;;;;;;;;5067501;28;20451;-78
2022/05/13 05:05:23;;;;;;;8.37;7.30;;;;;;;;;;5056011;28;20443;-79
2022/05/13 05:07:49;;;;;;;8.73;7.00;;;;;;;;;;5058510;28;20451;-79
2022/05/13 05:10:18;;;;;;;7.77;6.97;;;;;;;;;;5055266;28;20446;-79
2022/05/13 05:12:45;;;;;;;8.60;7.63;;;;;;;;;;5054579;28;20793;-79
2022/05/13 05:15:13;;;;;;;8.77;7.87;;;;;;;;;;5051989;28;20439;-82
2022/05/13 05:17:40;;;;;;;8.70;7.60;;;;;;;;;;5054552;28;20912;-82
2022/05/13 05:20:07;;;;;;;7.87;6.93;;;;;;;;;;5070502;28;20453;-82
2022/05/13 05:22:34;;;;;;;7.97;7.20;;;;;;;;;;5066938;28;20524;-83
2022/05/13 05:25:00;;;;;;;8.10;7.07;;;;;;;;;;5051786;28;20456;-82
2022/05/13 05:27:27;;;;;;;8.13;7.33;;;;;;;;;;5061725;28;20442;-82
2022/05/13 05:29:53;;;;;;;7.30;6.60;;;;;;;;;;5036885;28;20640;-82
2022/05/13 05:32:21;;;;;;;7.27;6.10;;;;;;;;;;5070009;28;20785;-82
2022/05/13 05:34:48;;;;;;;9.37;7.13;;;;;;;;;;5060595;28;21045;-82
2022/05/13 05:37:15;;;;;;;9.53;7.33;;;;;;;;;;5046070;28;20506;-84
2022/05/13 05:39:41;;;;;;;7.23;6.53;;;;;;;;;;5050902;28;20458;-84
2022/05/13 05:42:09;;;;;;;8.10;6.20;;;;;;;;;;5049947;28;20997;-80
2022/05/13 05:44:35;;;;;;;11.20;6.67;;;;;;;;;;5032079;28;20867;-81
2022/05/13 05:47:02;;;;;;;8.10;6.30;;;;;;;;;;5025195;28;20443;-80
2022/05/13 05:49:30;;;;;;;6.00;5.40;;;;;;;;;;5040516;28;20446;-80
2022/05/13 05:51:56;;;;;;;6.60;6.00;;;;;;;;;;5035028;28;20475;-80
2022/05/13 05:57:16;;;;;;;6.57;5.87;;;;;;;;;;5038134;28;20438;-80
2022/05/13 05:59:43;;;;;;;7.63;5.37;;;;;;;;;;5067898;28;20483;-80
2022/05/13 06:02:09;;;;;;;5.80;4.83;;;;;;;;;;5035490;28;20545;-80
2022/05/13 06:04:37;;;;;;;9.30;5.00;;;;;;;;;;5047040;28;20468;-80
2022/05/13 06:07:04;;;;;;;8.70;5.53;;;;;;;;;;5068226;28;20449;-80
2022/05/13 06:09:31;;;;;;;5.33;4.83;;;;;;;;;;5050432;28;20526;-80
2022/05/13 06:11:57;;;;;;;5.00;4.50;;;;;;;;;;5049930;28;20450;-81
2022/05/13 06:14:24;;;;;;;5.80;5.03;;;;;;;;;;5045244;28;20557;-80
2022/05/13 06:16:51;;;;;;;6.47;5.87;;;;;;;;;;5069455;28;20445;-80
2022/05/13 06:19:17;;;;;;;6.30;5.60;;;;;;;;;;5039909;28;20476;-80
2022/05/13 06:21:45;;;;;;;9.20;6.67;;;;;;;;;;5032477;28;20561;-80
2022/05/13 06:24:12;;;;;;;6.73;4.83;;;;;;;;;;5051169;28;20439;-80
2022/05/13 06:26:40;;;;;;;7.07;5.73;;;;;;;;;;5050851;28;20427;-80
2022/05/13 06:29:07;;;;;;;6.03;5.53;;;;;;;;;;5057508;28;20450;-80
2022/05/13 06:31:34;;;;;;;6.70;5.20;;;;;;;;;;5031972;28;20557;-80
2022/05/13 06:34:00;;;;;;;7.17;5.40;;;;;;;;;;5035410;28;20453;-80
2022/05/13 06:36:27;;;;;;;8.53;5.57;;;;;;;;;;5028412;28;20965;-80
2022/05/13 06:38:56;;;;;;;5.53;4.90;;;;;;;;;;5032210;28;20453;-80
2022/05/13 06:41:24;;;;;;;7.60;5.23;;;;;;;;;;5015750;28;20471;-80
2022/05/13 06:43:51;;;;;;;5.73;4.70;;;;;;;;;;5050837;28;20815;-80
2022/05/13 06:46:18;;;;;;;5.20;4.63;;;;;;;;;;5049356;28;20427;-80
2022/05/13 06:48:44;;;;;;;7.50;5.73;;;;;;;;;;5049281;28;20461;-80
2022/05/13 06:51:10;;;;;;;6.93;5.97;;;;;;;;;;5055082;28;20455;-80
2022/05/13 06:53:39;;;;;;;5.70;5.00;;;;;;;;;;5035871;28;20537;-80
2022/05/13 06:56:07;;;;;;;6.23;5.07;;;;;;;;;;5054168;28;20446;-80
2022/05/13 06:58:34;;;;;;;8.33;5.23;;;;;;;;;;5061738;28;20442;-79
2022/05/13 07:01:01;;;;;;;9.17;5.53;;;;;;;;;;5052778;28;20446;-79
2022/05/13 07:03:28;;;;;;;5.13;4.63;;;;;;;;;;5055810;28;20900;-79
2022/05/13 07:05:54;;;;;;;9.60;5.90;;;;;;;;;;5053971;28;20445;-79
2022/05/13 07:08:21;;;;;;;6.10;5.50;;;;;;;;;;5073866;28;20446;-79
2022/05/13 07:10:47;;;;;;;5.70;5.20;;;;;;;;;;5046320;28;20446;-79
2022/05/13 07:13:15;;;;;;;6.70;5.30;;;;;;;;;;5053694;28;20434;-79
2022/05/13 07:15:43;;;;;;;5.40;4.90;;;;;;;;;;5036364;28;20477;-79
2022/05/13 07:18:10;;;;;;;5.60;5.07;;;;;;;;;;5038919;28;20477;-80
2022/05/13 07:20:36;;;;;;;6.53;5.40;;;;;;;;;;5052757;28;20535;-80
2022/05/13 07:23:03;;;;;;;5.57;5.07;;;;;;;;;;5046596;28;20474;-80
2022/05/13 07:25:31;;;;;;;6.17;5.57;;;;;;;;;;5072319;28;20438;-80
2022/05/13 07:27:57;;;;;;;6.93;5.60;;;;;;;;;;5054347;28;20476;-80
2022/05/13 07:30:25;;;;;;;7.17;5.27;;;;;;;;;;5052173;28;20460;-79
2022/05/13 07:32:52;;;;;;;8.50;4.90;;;;;;;;;;5070569;28;20454;-80
2022/05/13 07:35:19;;;;;;;6.23;5.63;;;;;;;;;;5073743;28;20447;-79
2022/05/13 07:37:45;;;;;;;8.10;5.40;;;;;;;;;;5057203;28;20446;-80
2022/05/13 07:42:56;;;;;;;6.07;5.47;;;;;;;;;;5037600;28;20487;-79
2022/05/13 07:45:23;;;;;;;5.90;5.30;;;;;;;;;;5062642;28;20450;-80
2022/05/13 07:47:51;;;;;;;6.20;5.60;;;;;;;;;;5059815;28;20456;-79
2022/05/13 07:50:17;;;;;;;6.13;5.57;;;;;;;;;;5054025;28;20806;-79
2022/05/13 07:52:44;;;;;;;7.40;5.80;;;;;;;;;;5038094;28;20438;-80
2022/05/13 07:55:12;;;;;;;6.20;5.00;;;;;;;;;;5054102;28;20438;-80
2022/05/13 07:57:39;;;;;;;7.83;5.17;;;;;;;;;;5052573;28;20795;-79
2022/05/13 08:00:25;;;;;;;6.80;4.70;;;;;;;;;;5050496;28;20790;-80
2022/05/13 08:02:53;;;;;;;6.73;6.13;;;;;;;;;;5040606;28;20475;-79
2022/05/13 08:05:20;;;;;;;8.57;5.73;;;;;;;;;;5042754;28;20451;-80
2022/05/13 08:07:46;;;;;;;7.77;6.30;;;;;;;;;;5068919;28;20472;-79
2022/05/13 08:10:14;;;;;;;6.67;5.97;;;;;;;;;;5053335;28;20422;-79
2022/05/13 08:12:40;;;;;;;7.93;5.90;;;;;;;;;;5069335;28;20431;-80
2022/05/13 08:15:08;;;;;;;6.13;5.60;;;;;;;;;;5051641;28;20442;-79
2022/05/13 08:17:34;;;;;;;5.63;5.03;;;;;;;;;;5056212;28;20446;-79
2022/05/13 08:20:03;;;;;;;8.03;5.20;;;;;;;;;;5053271;28;20493;-79
2022/05/13 08:22:29;;;;;;;6.23;4.80;;;;;;;;;;5034839;28;20463;-80
2022/05/13 08:24:56;;;;;;;5.07;4.40;;;;;;;;;;5053649;28;20445;-80
2022/05/13 08:27:22;;;;;;;9.17;5.23;;;;;;;;;;5053861;28;20434;-79
2022/05/13 08:29:49;;;;;;;5.80;4.27;;;;;;;;;;5069185;28;20438;-79
2022/05/13 08:32:15;;;;;;;7.87;4.17;;;;;;;;;;5063363;28;20466;-79
2022/05/13 08:34:42;;;;;;;7.77;4.97;;;;;;;;;;5045984;28;20557;-79
2022/05/13 08:37:10;;;;;;;7.87;4.53;;;;;;;;;;5048049;28;20453;-80
2022/05/13 08:39:36;;;;;;;8.23;4.70;;;;;;;;;;5070828;28;20542;-79
2022/05/13 08:42:10;;;;;;;4.87;4.37;;;;;;;;;;5065921;28;20569;-80
2022/05/13 08:44:37;;;;;;;10.37;5.27;;;;;;;;;;5036666;28;20443;-79
2022/05/13 08:47:08;;;;;;;5.10;4.10;;;;;;;;;;5057787;28;20461;-80
2022/05/13 08:49:36;;;;;;;5.43;4.10;;;;;;;;;;5035218;28;20930;-79
2022/05/13 08:54:52;;;;;;;5.50;3.83;;;;;;;;;;5027492;28;20449;-80
2022/05/13 08:57:19;;;;;;;7.17;3.70;;;;;;;;;;5064330;28;20532;-79
2022/05/13 08:59:48;;;;;;;4.73;4.07;;;;;;;;;;5033808;28;20549;-79
2022/05/13 09:02:17;;;;;;;6.80;4.77;;;;;;;;;;5048573;28;20513;-80
2022/05/13 09:04:47;;;;;;;6.47;4.03;;;;;;;;;;5035201;28;20467;-79
2022/05/13 09:07:17;;;;;;;9.13;5.00;;;;;;;;;;5050542;28;20454;-79
2022/05/13 09:09:45;;;;;;;6.80;4.63;;;;;;;;;;5058608;28;20457;-79
2022/05/13 09:12:19;;;;;;;6.03;4.63;;;;;;;;;;5061083;28;20439;-79
2022/05/13 09:14:46;;;;;;;5.20;3.60;;;;;;;;;;5035960;28;21011;-79
2022/05/13 09:17:25;;;;;;;6.70;3.90;;;;;;;;;;5050297;28;20454;-79
2022/05/13 09:19:54;;;;;;;4.60;3.23;;;;;;;;;;5033171;28;20453;-79
2022/05/13 09:22:21;;;;;;;4.17;3.40;;;;;;;;;;5052026;28;21003;-80
2022/05/13 09:24:48;;;;;;;4.97;3.87;;;;;;;;;;5056498;28;20449;-80
2022/05/13 09:27:15;;;;;;;4.10;3.30;;;;;;;;;;5047943;28;20450;-80
2022/05/13 09:29:42;;;;;;;3.67;3.37;;;;;;;;;;5062552;28;20795;-80
2022/05/13 09:32:14;;;;;;;5.03;3.53;;;;;;;;;;5016576;28;20431;-80
2022/05/13 09:34:47;;;;;;;6.70;3.30;;;;;;;;;;5063782;28;20456;-80
2022/05/13 09:37:18;;;;;;;7.10;3.03;;;;;;;;;;5043840;28;20809;-80
2022/05/13 09:39:48;;;;;;;4.93;3.63;;;;;;;;;;5066417;28;20473;-80
2022/05/13 09:42:19;;;;;;;3.43;3.10;;;;;;;;;;5050690;28;20474;-80
2022/05/13 09:44:46;;;;;;;2.97;2.67;;;;;;;;;;5051003;28;20450;-80
2022/05/13 09:47:14;;;;;;;10.87;3.73;;;;;;;;;;5023038;28;20447;-80
2022/05/13 09:49:41;;;;;;;6.70;3.03;;;;;;;;;;5043113;28;20445;-80
2022/05/13 09:52:09;;;;;;;4.33;3.07;;;;;;;;;;5044875;28;20451;-80
2022/05/13 09:54:36;;;;;;;4.00;3.00;;;;;;;;;;5037400;28;20438;-80
2022/05/13 09:57:09;;;;;;;5.10;3.20;;;;;;;;;;5057027;28;20476;-80
2022/05/13 09:59:36;;;;;;;5.87;3.50;;;;;;;;;;5046561;28;20457;-80
2022/05/13 10:02:16;;;;;;;5.00;3.00;;;;;;;;;;5016071;28;20937;-80
2022/05/13 10:04:42;;;;;;;4.60;3.13;;;;;;;;;;5054898;28;20431;-79
2022/05/13 10:07:14;;;;;;;4.20;3.70;;;;;;;;;;5046006;28;20546;-80
2022/05/13 10:15:25;;;;;;;3.73;2.53;;;;;;;;;;5043964;28;20446;-80
2022/05/13 10:17:53;;;;;;;4.20;2.80;;;;;;;;;;5050320;28;20528;-80
2022/05/13 10:20:24;;;;;;;3.97;2.23;;;;;;;;;;5067692;28;20935;-79
2022/05/13 10:22:53;;;;;;;4.47;2.33;;;;;;;;;;5051737;28;20462;-79
2022/05/13 10:25:21;;;;;;;5.93;2.70;;;;;;;;;;5039649;28;20552;-80
2022/05/13 10:27:51;;;;;;;4.50;3.10;;;;;;;;;;5068627;28;20494;-80
2022/05/13 10:30:22;;;;;;;4.80;3.10;;;;;;;;;;5058126;28;20533;-80
2022/05/13 10:32:54;;;;;;;4.10;3.10;;;;;;;;;;5068955;28;20550;-79
2022/05/13 10:35:22;;;;;;;5.20;2.87;;;;;;;;;;5038640;28;20446;-79
2022/05/13 10:37:55;;;;;;;5.17;3.27;;;;;;;;;;5055471;28;20434;-79
2022/05/13 10:40:22;;;;;;;3.13;2.80;;;;;;;;;;5055283;28;20770;-79
2022/05/13 10:42:55;;;;;;;3.90;2.80;;;;;;;;;;5037670;28;20983;-80
2022/05/13 10:45:24;;;;;;;5.77;3.53;;;;;;;;;;5070456;28;20916;-79
2022/05/13 10:47:52;;;;;;;8.30;3.60;;;;;;;;;;5051106;28;20825;-79
2022/05/13 10:50:20;;;;;;;3.30;3.00;;;;;;;;;;5056112;28;20465;-79
2022/05/13 10:52:52;;;;;;;4.77;3.53;;;;;;;;;;5061517;28;20482;-80
2022/05/13 10:55:21;;;;;;;5.60;3.70;;;;;;;;;;5036362;28;20430;-79
2022/05/13 10:57:55;;;;;;;5.50;3.30;;;;;;;;;;5035061;28;20489;-79
2022/05/13 11:00:24;;;;;;;7.40;3.50;;;;;;;;;;5073003;28;20442;-79
2022/05/13 11:02:59;;;;;;;4.73;3.03;;;;;;;;;;5065330;28;20473;-79
2022/05/13 11:05:29;;;;;;;4.53;3.07;;;;;;;;;;5057904;28;20912;-79
2022/05/13 11:08:00;;;;;;;4.40;3.77;;;;;;;;;;5053152;28;20450;-79
2022/05/13 11:10:30;;;;;;;4.30;3.90;;;;;;;;;;5053041;28;20487;-79
2022/05/13 11:13:00;;;;;;;4.43;4.00;;;;;;;;;;5035458;28;20452;-79
2022/05/13 11:15:33;;;;;;;4.33;3.83;;;;;;;;;;5035602;28;20834;-79
2022/05/13 11:18:07;;;;;;;3.80;3.47;;;;;;;;;;5052988;28;20454;-79
2022/05/13 11:20:44;;;;;;;5.50;4.00;;;;;;;;;;5046998;28;20441;-79
2022/05/13 11:23:15;;;;;;;4.53;4.10;;;;;;;;;;5038512;28;20912;-79
2022/05/13 11:25:56;;;;;;;8.80;4.17;;;;;;;;;;5044817;28;20446;-79
2022/05/13 11:28:32;;;;;;;5.03;4.30;;;;;;;;;;5035171;28;20439;-79
2022/05/13 11:31:01;;;;;;;4.70;4.20;;;;;;;;;;5035332;28;20447;-79
2022/05/13 11:33:32;;;;;;;4.43;4.03;;;;;;;;;;5067440;28;20937;-80
2022/05/13 11:36:06;;;;;;;5.20;4.07;;;;;;;;;;5068298;28;20449;-79
2022/05/13 11:38:38;;;;;;;4.40;4.00;;;;;;;;;;5037793;28;20481;-80
2022/05/13 11:41:10;;;;;;;5.53;4.50;;;;;;;;;;5035447;28;20427;-80
2022/05/13 11:43:43;;;;;;;4.77;4.37;;;;;;;;;;5038913;28;20476;-79
2022/05/13 11:46:26;;;;;;;6.87;4.60;;;;;;;;;;5036429;28;20451;-80
2022/05/13 11:48:53;;;;;;;4.60;4.20;;;;;;;;;;5068665;28;20447;-79
2022/05/13 11:51:21;;;;;;;5.40;4.43;;;;;;;;;;5035145;28;20523;-80
2022/05/13 11:53:49;;;;;;;5.63;4.60;;;;;;;;;;5065134;28;20451;-80
2022/05/13 11:56:30;;;;;;;4.93;4.43;;;;;;;;;;5038548;28;20521;-79
2022/05/13 11:58:58;;;;;;;5.07;4.47;;;;;;;;;;5062848;28;20462;-80
2022/05/13 12:01:43;;;;;;;6.47;4.53;;;;;;;;;;5032984;28;20488;-79
2022/05/13 12:04:28;;;;;;;5.87;4.93;;;;;;;;;;5062583;28;20463;-80
2022/05/13 12:06:58;;;;;;;6.23;4.30;;;;;;;;;;5031514;28;20531;-79
2022/05/13 12:09:29;;;;;;;5.03;4.30;;;;;;;;;;5035271;28;20458;-80
2022/05/13 12:11:58;;;;;;;5.50;4.87;;;;;;;;;;5036199;28;20442;-80
2022/05/13 12:14:31;;;;;;;4.17;3.77;;;;;;;;;;5052114;28;20887;-79
2022/05/13 12:17:04;;;;;;;4.60;3.97;;;;;;;;;;5034263;28;20465;-80
2022/05/13 12:19:34;;;;;;;5.17;4.77;;;;;;;;;;5050180;28;20553;-80
2022/05/13 12:22:04;;;;;;;6.10;4.60;;;;;;;;;;5033622;28;20442;-80
2022/05/13 12:24:48;;;;;;;4.90;4.40;;;;;;;;;;5062901;28;20502;-79
2022/05/13 12:27:14;;;;;;;4.90;4.40;;;;;;;;;;5057442;28;20561;-79
2022/05/13 12:29:59;;;;;;;5.23;4.83;;;;;;;;;;5062231;28;20545;-79
2022/05/13 12:32:39;;;;;;;5.47;5.07;;;;;;;;;;5069243;28;21012;-79
2022/05/13 12:38:02;;;;;;;5.73;5.27;;;;;;;;;;5031023;28;20439;-79
2022/05/13 12:40:32;;;;;;;6.97;4.90;;;;;;;;;;5032107;28;20543;-79
2022/05/13 12:43:00;;;;;;;5.37;4.83;;;;;;;;;;5062368;28;20884;-79
2022/05/13 12:45:45;;;;;;;5.80;4.10;;;;;;;;;;5040576;28;20454;-79
2022/05/13 12:48:13;;;;;;;5.43;4.93;;;;;;;;;;5049295;28;20446;-79
2022/05/13 12:50:41;;;;;;;7.83;5.37;;;;;;;;;;5050303;28;20443;-79
2022/05/13 12:53:34;;;;;;;7.30;5.40;;;;;;;;;;5057519;28;20461;-78
2022/05/13 12:56:02;;;;;;;5.43;5.00;;;;;;;;;;5031675;28;20995;-78
2022/05/13 12:58:29;;;;;;;7.97;5.47;;;;;;;;;;5030630;28;20950;-78
2022/05/13 13:00:58;;;;;;;6.60;4.77;;;;;;;;;;5032564;28;20792;-78
2022/05/13 13:03:26;;;;;;;5.33;4.83;;;;;;;;;;5060702;28;20952;-78
2022/05/13 13:05:57;;;;;;;4.70;4.30;;;;;;;;;;5036620;28;20458;-78
2022/05/13 13:08:26;;;;;;;4.57;4.13;;;;;;;;;;5049092;28;20450;-78
2022/05/13 13:10:56;;;;;;;5.10;4.60;;;;;;;;;;5014862;28;20453;-78
2022/05/13 13:13:25;;;;;;;5.40;4.60;;;;;;;;;;5069288;28;20434;-78
2022/05/13 13:15:55;;;;;;;6.67;4.30;;;;;;;;;;5056656;28;20449;-78
2022/05/13 13:18:30;;;;;;;4.47;4.10;;;;;;;;;;5033082;28;20561;-78
2022/05/13 13:20:58;;;;;;;4.50;3.70;;;;;;;;;;5035561;28;20461;-78
2022/05/13 13:23:26;;;;;;;4.73;4.30;;;;;;;;;;5034294;28;20471;-78
2022/05/13 13:25:53;;;;;;;4.23;3.67;;;;;;;;;;5031147;28;20451;-78
2022/05/13 13:28:25;;;;;;;4.90;4.27;;;;;;;;;;5048649;28;20449;-78
2022/05/13 13:30:54;;;;;;;6.63;3.50;;;;;;;;;;5035871;28;20449;-78
2022/05/13 13:33:21;;;;;;;3.67;3.33;;;;;;;;;;5031854;28;20542;-78
2022/05/13 13:35:49;;;;;;;4.30;3.90;;;;;;;;;;5054883;28;20461;-78
2022/05/13 13:38:16;;;;;;;4.50;3.67;;;;;;;;;;5034670;28;21000;-78
2022/05/13 13:40:46;;;;;;;4.10;3.13;;;;;;;;;;5060610;28;20896;-78
2022/05/13 13:43:13;;;;;;;3.37;3.07;;;;;;;;;;5036405;28;20490;-78
2022/05/13 13:45:40;;;;;;;5.33;3.20;;;;;;;;;;5037610;28;20459;-78
2022/05/13 13:48:09;;;;;;;5.43;3.50;;;;;;;;;;5059000;28;20457;-78
2022/05/13 13:50:39;;;;;;;4.37;3.30;;;;;;;;;;5047426;28;20476;-79
2022/05/13 13:53:09;;;;;;;4.23;3.43;;;;;;;;;;5059406;28;20455;-78
2022/05/13 13:55:38;;;;;;;3.37;3.07;;;;;;;;;;5057573;28;20434;-78
2022/05/13 13:58:10;;;;;;;3.77;3.33;;;;;;;;;;5047805;28;20482;-78
2022/05/13 14:00:38;;;;;;;3.83;3.07;;;;;;;;;;5046588;28;20466;-78
2022/05/13 14:03:06;;;;;;;3.20;2.80;;;;;;;;;;5030332;28;20505;-78
2022/05/13 14:05:35;;;;;;;3.90;3.50;;;;;;;;;;5041826;28;20477;-78
2022/05/13 14:08:02;;;;;;;5.50;3.03;;;;;;;;;;5068497;28;20456;-78
2022/05/13 14:10:32;;;;;;;3.03;2.73;;;;;;;;;;5038802;28;20461;-78
2022/05/13 14:13:01;;;;;;;3.53;3.23;;;;;;;;;;5050278;28;20453;-78
2022/05/13 14:15:31;;;;;;;4.10;3.10;;;;;;;;;;5063329;28;20959;-78
2022/05/13 14:17:57;;;;;;;3.13;2.80;;;;;;;;;;5046532;28;20451;-78
2022/05/13 14:20:31;;;;;;;5.00;3.00;;;;;;;;;;5035408;28;20549;-78
2022/05/13 14:23:04;;;;;;;3.40;2.80;;;;;;;;;;5067372;28;20556;-78
2022/05/13 14:25:35;;;;;;;6.33;2.93;;;;;;;;;;5033256;28;20474;-78
2022/05/13 14:28:01;;;;;;;4.10;2.60;;;;;;;;;;5051881;28;20498;-78
2022/05/13 14:30:31;;;;;;;4.03;2.97;;;;;;;;;;5063281;28;20456;-78
2022/05/13 14:32:58;;;;;;;2.93;2.70;;;;;;;;;;5067734;28;20441;-79
2022/05/13 14:35:27;;;;;;;3.70;2.37;;;;;;;;;;5058465;28;21015;-78
2022/05/13 14:37:55;;;;;;;3.57;2.60;;;;;;;;;;5057064;28;21006;-78
2022/05/13 14:40:22;;;;;;;3.73;2.90;;;;;;;;;;5044685;28;20445;-78
2022/05/13 14:42:51;;;;;;;3.57;2.67;;;;;;;;;;5040297;28;20489;-78
2022/05/13 14:45:21;;;;;;;6.67;2.87;;;;;;;;;;5044667;28;20466;-78
2022/05/13 14:47:48;;;;;;;4.03;2.70;;;;;;;;;;5066352;28;20458;-78
2022/05/13 14:50:18;;;;;;;3.87;3.00;;;;;;;;;;5047130;28;20810;-80
2022/05/13 14:52:46;;;;;;;5.03;2.80;;;;;;;;;;5054669;28;20458;-78
2022/05/13 14:55:16;;;;;;;5.10;2.80;;;;;;;;;;5036532;28;20482;-79
2022/05/13 14:57:43;;;;;;;5.93;2.70;;;;;;;;;;5052593;28;20943;-79
2022/05/13 15:00:14;;;;;;;3.13;2.60;;;;;;;;;;5061963;28;20450;-78
2022/05/13 15:02:45;;;;;;;3.33;3.03;;;;;;;;;;5065929;28;20449;-78
2022/05/13 15:05:18;;;;;;;4.17;3.10;;;;;;;;;;5050796;28;20817;-78
2022/05/13 15:07:45;;;;;;;4.50;2.30;;;;;;;;;;5069053;28;20491;-78
2022/05/13 15:10:13;;;;;;;5.73;3.97;;;;;;;;;;5064863;28;20476;-78
2022/05/13 15:12:40;;;;;;;5.03;2.57;;;;;;;;;;5042263;28;20465;-78
2022/05/13 15:15:08;;;;;;;4.70;2.77;;;;;;;;;;5059283;28;20943;-78
2022/05/13 15:17:38;;;;;;;2.90;2.70;;;;;;;;;;5041498;28;20484;-78